Terminal Aerodrome Forecast
Issued by NWS Twin Cities, MN

Home | Current Version | Previous Version | Text Only | Print | Product List | Glossary On
Versions: 1 2 3 4 5 6 7 8 9 10 11 12 13 14 15
283
FTUS43 KMPX 241120
TAFEAU
TAF
KEAU 241120Z 2412/2512 11007KT P6SM OVC015
     FM241600 12011KT P6SM SCT015 BKN025
     FM242000 13011KT P6SM SCT020 OVC035
     FM250600 14008KT P6SM VCTS SCT015 BKN025CB
      TEMPO 2508/2512 5SM +SHRA BR BKN015=

USA.gov is the U.S. government's official web portal to all federal, state and local government web resources and services.